createdAt,value
2017-06-26T00:00:09.326Z,100419.34
2017-06-26T00:02:35.926Z,100421.44
2017-06-26T00:05:02.736Z,100417.92
2017-06-26T00:07:29.378Z,100423.44
2017-06-26T00:10:00.907Z,100420.17
2017-06-26T00:12:27.572Z,100431.92
2017-06-26T00:14:54.459Z,100427.45
2017-06-26T00:17:21.275Z,100423.77
2017-06-26T00:19:47.873Z,100431.61
2017-06-26T00:22:15.753Z,100431.98
2017-06-26T00:24:52.391Z,100423.68
2017-06-26T00:27:19.024Z,100425.80
2017-06-26T00:29:51.592Z,100426.17
2017-06-26T00:32:24.241Z,100429.70
2017-06-26T00:34:51.251Z,100425.28
2017-06-26T00:37:17.562Z,100427.56
2017-06-26T00:39:44.006Z,100425.73
2017-06-26T00:42:11.240Z,100436.20
2017-06-26T00:44:38.020Z,100441.06
2017-06-26T00:47:04.646Z,100442.22
2017-06-26T00:49:31.530Z,100437.09
2017-06-26T00:52:03.458Z,100436.64
2017-06-26T00:54:38.111Z,100434.05
2017-06-26T00:57:04.917Z,100436.33
2017-06-26T00:59:31.280Z,100430.53
2017-06-26T01:02:02.760Z,100423.77
2017-06-26T01:04:29.546Z,100423.92
2017-06-26T01:06:56.238Z,100433.74
2017-06-26T01:09:22.891Z,100422.52
2017-06-26T01:11:54.896Z,100428.27
2017-06-26T01:14:21.620Z,100432.80
2017-06-26T01:16:50.323Z,100428.81
2017-06-26T01:19:22.589Z,100434.65
2017-06-26T01:21:49.078Z,100435.30
2017-06-26T01:24:15.637Z,100438.50
2017-06-26T01:26:47.290Z,100428.46
2017-06-26T01:29:14.553Z,100436.25
2017-06-26T01:31:46.543Z,100437.16
2017-06-26T01:34:13.803Z,100426.66
2017-06-26T01:36:40.276Z,100423.06
2017-06-26T01:39:06.686Z,100420.63
2017-06-26T01:41:33.087Z,100423.69
2017-06-26T01:43:59.629Z,100425.66
2017-06-26T01:46:26.559Z,100422.98
2017-06-26T01:48:53.553Z,100423.05
2017-06-26T01:51:21.138Z,100428.48
2017-06-26T01:53:52.959Z,100423.89
2017-06-26T01:56:19.630Z,100420.89
2017-06-26T01:58:53.071Z,100415.64
2017-06-26T02:01:24.668Z,100418.91
2017-06-26T02:03:51.394Z,100419.02
2017-06-26T02:06:18.176Z,100422.00
2017-06-26T02:08:45.309Z,100417.39
2017-06-26T02:11:12.497Z,100419.82
2017-06-26T02:13:40.098Z,100417.39
2017-06-26T02:16:08.352Z,100416.86
2017-06-26T08:09:08.580Z,100561.30
2017-06-26T08:11:35.074Z,100566.67
2017-06-26T08:14:01.418Z,100557.84
2017-06-26T08:16:27.777Z,100559.55
2017-06-26T08:18:54.159Z,100566.77
2017-06-26T08:21:20.501Z,100567.80
2017-06-26T08:23:46.841Z,100560.02
2017-06-26T08:26:13.277Z,100560.39
2017-06-26T08:28:39.610Z,100563.90
2017-06-26T08:31:05.944Z,100567.27
2017-06-26T08:33:32.284Z,100576.70
2017-06-26T08:35:58.614Z,100565.69
2017-06-26T08:38:24.974Z,100564.80
2017-06-26T08:40:51.317Z,100556.58
2017-06-26T08:43:17.660Z,100562.99
2017-06-26T08:45:44.000Z,100564.27
2017-06-26T08:48:10.351Z,100563.77
2017-06-26T08:50:36.702Z,100562.92
2017-06-26T08:53:03.042Z,100566.80
2017-06-26T08:55:29.381Z,100578.80
2017-06-26T08:57:55.712Z,100571.42
2017-06-26T09:00:22.050Z,100569.27
2017-06-26T09:02:48.399Z,100566.75
2017-06-26T09:05:14.746Z,100566.37
2017-06-26T09:07:41.084Z,100566.08
2017-06-26T09:10:07.486Z,100568.32
2017-06-26T09:12:33.835Z,100564.62
2017-06-26T09:15:00.191Z,100566.55
2017-06-26T09:17:26.544Z,100553.91
2017-06-26T09:19:52.904Z,100556.01
2017-06-26T09:22:19.244Z,100560.76
2017-06-26T09:24:45.574Z,100561.06
2017-06-26T09:27:11.912Z,100556.08
2017-06-26T09:29:38.268Z,100554.41
2017-06-26T09:32:04.621Z,100557.78
2017-06-26T09:34:30.969Z,100556.27
2017-06-26T11:46:35.357Z,100594.91
2017-06-26T12:10:29.815Z,100587.09
2017-06-26T12:12:56.132Z,100594.41
2017-06-26T12:15:22.444Z,100593.30
2017-06-26T12:17:48.787Z,100590.57
2017-06-26T12:20:15.095Z,100600.15
2017-06-26T12:22:41.436Z,100599.20
2017-06-26T12:25:07.902Z,100596.31
2017-06-26T12:27:34.196Z,100596.08
2017-06-26T12:30:00.505Z,100592.85
2017-06-26T12:32:26.854Z,100586.40
2017-06-26T12:34:53.216Z,100579.71
2017-06-26T12:37:19.527Z,100591.41
2017-06-26T12:39:45.957Z,100588.64
2017-06-26T12:42:12.347Z,100595.31
2017-06-26T12:44:38.690Z,100600.27
2017-06-26T12:47:05.023Z,100603.31
2017-06-26T12:49:31.363Z,100603.94
2017-06-26T12:51:57.670Z,100597.52
2017-06-26T12:57:26.583Z,100597.69
2017-06-26T13:05:15.202Z,100595.42
2017-06-26T13:11:00.170Z,100585.17
2017-06-26T13:13:32.375Z,100582.56
2017-06-26T13:16:02.468Z,100579.55
2017-06-26T13:21:24.745Z,100577.73
2017-06-26T13:24:01.324Z,100581.28
2017-06-26T13:26:36.325Z,100579.62
2017-06-26T13:31:55.632Z,100562.84
2017-06-26T13:34:22.132Z,100566.60
2017-06-26T13:36:48.475Z,100569.72
2017-06-26T13:39:14.826Z,100566.97
2017-06-26T13:41:41.462Z,100564.16
2017-06-26T13:44:07.821Z,100563.63
2017-06-26T13:46:34.187Z,100566.73
2017-06-26T13:49:00.553Z,100575.27
2017-06-26T13:51:26.884Z,100563.64
2017-06-26T13:53:53.239Z,100565.67
2017-06-26T13:56:19.599Z,100562.81
2017-06-26T13:58:45.959Z,100557.95
2017-06-26T14:01:12.301Z,100562.99
2017-06-26T14:03:38.902Z,100554.47
2017-06-26T14:06:05.292Z,100550.91
2017-06-26T14:08:31.634Z,100547.92
2017-06-26T14:10:58.004Z,100548.96
2017-06-26T14:13:24.388Z,100545.50
2017-06-26T14:15:50.928Z,100550.67
2017-06-26T14:18:17.301Z,100544.93
2017-06-26T14:20:44.045Z,100550.08
2017-06-26T14:23:10.461Z,100551.12
2017-06-26T14:25:36.799Z,100541.91
2017-06-26T14:28:03.148Z,100542.35
2017-06-26T14:30:29.478Z,100548.11
2017-06-26T14:32:55.820Z,100542.66
2017-06-26T14:35:22.160Z,100549.56
2017-06-26T14:37:48.516Z,100551.80
2017-06-26T14:40:14.844Z,100547.99
2017-06-26T14:42:41.147Z,100548.64
2017-06-26T14:45:07.496Z,100547.42
2017-06-26T14:47:33.921Z,100533.66
2017-06-26T14:50:01.587Z,100535.37
2017-06-26T14:52:27.999Z,100539.81
2017-06-26T14:54:54.350Z,100538.24
2017-06-26T14:57:20.691Z,100531.03
2017-06-26T14:59:47.364Z,100535.03
2017-06-26T15:02:13.756Z,100526.81
2017-06-26T15:04:40.091Z,100541.22
2017-06-26T15:07:06.704Z,100535.09
2017-06-26T15:09:33.073Z,100534.16
2017-06-26T15:11:59.448Z,100536.56
2017-06-26T15:14:25.804Z,100533.92
2017-06-26T15:16:52.188Z,100542.10
2017-06-26T15:19:18.511Z,100543.81
2017-06-26T15:21:44.853Z,100532.55
2017-06-26T15:24:11.221Z,100532.66
2017-06-26T15:26:37.598Z,100534.45
2017-06-26T15:29:03.997Z,100529.38
2017-06-26T15:31:30.354Z,100524.75
2017-06-26T15:33:56.697Z,100526.13
2017-06-26T15:36:23.062Z,100520.37
2017-06-26T15:38:49.408Z,100521.94
2017-06-26T15:41:15.750Z,100516.44
2017-06-26T15:43:42.125Z,100517.20
2017-06-26T15:46:08.467Z,100511.98
2017-06-26T15:48:34.823Z,100512.91
2017-06-26T15:51:01.173Z,100507.27
2017-06-26T15:53:27.537Z,100504.17
2017-06-26T15:55:53.911Z,100501.17
2017-06-26T15:58:20.307Z,100498.27
2017-06-26T16:00:46.818Z,100495.38
2017-06-26T16:03:15.365Z,100494.41
2017-06-26T16:05:42.885Z,100489.45
2017-06-26T16:08:09.293Z,100491.80
2017-06-26T16:10:35.612Z,100493.85
2017-06-26T16:13:02.000Z,100496.15
2017-06-26T16:15:28.423Z,100497.77
2017-06-26T16:17:54.816Z,100494.28
2017-06-26T16:20:21.185Z,100497.81
2017-06-26T16:22:47.546Z,100489.87
2017-06-26T16:25:13.887Z,100495.52
2017-06-26T16:27:40.272Z,100488.61
2017-06-26T16:30:06.641Z,100495.08
2017-06-26T16:32:32.979Z,100485.50
2017-06-26T16:34:59.348Z,100493.64
2017-06-26T16:37:25.744Z,100491.73
2017-06-26T16:39:52.114Z,100488.08
2017-06-26T16:42:18.498Z,100494.92
2017-06-26T16:44:47.775Z,100496.80
2017-06-26T16:47:14.271Z,100498.61
2017-06-26T16:49:40.626Z,100499.90
2017-06-26T16:52:07.031Z,100497.64
2017-06-26T16:54:33.382Z,100490.95
2017-06-26T16:56:59.758Z,100488.18
2017-06-26T18:17:01.675Z,100459.87
2017-06-26T18:19:28.041Z,100454.20
2017-06-26T18:21:54.372Z,100451.95
2017-06-26T18:24:20.723Z,100448.20
2017-06-26T18:26:47.084Z,100451.59
2017-06-26T18:29:13.437Z,100446.49
2017-06-26T18:31:39.812Z,100443.11
2017-06-26T18:34:06.197Z,100442.19
2017-06-26T18:36:32.515Z,100447.81
2017-06-26T18:38:58.890Z,100452.73
2017-06-26T18:41:25.227Z,100451.03
2017-06-26T18:43:51.572Z,100450.36
2017-06-26T18:46:17.933Z,100446.75
2017-06-26T18:48:44.274Z,100452.64
2017-06-26T18:51:10.668Z,100446.90
2017-06-26T18:53:37.016Z,100442.28
2017-06-26T18:56:03.356Z,100441.38
2017-06-26T18:58:29.707Z,100446.01
2017-06-26T19:00:56.034Z,100440.84
2017-06-26T19:03:22.414Z,100444.13
2017-06-26T19:05:48.799Z,100446.66
2017-06-26T19:08:15.147Z,100441.40
2017-06-26T19:10:41.494Z,100441.42
2017-06-26T19:13:07.875Z,100442.45
2017-06-26T19:15:34.210Z,100443.84
2017-06-26T19:18:00.673Z,100448.70
2017-06-26T19:20:27.055Z,100449.56
2017-06-26T19:22:53.409Z,100453.73
2017-06-26T19:25:19.752Z,100455.05
2017-06-26T19:27:46.314Z,100465.19
2017-06-26T19:30:12.651Z,100473.08
2017-06-26T19:32:39.073Z,100470.31
2017-06-26T19:35:05.441Z,100468.83
2017-06-26T19:37:31.802Z,100470.38
2017-06-26T19:39:58.179Z,100475.82
2017-06-26T19:42:24.533Z,100479.92
2017-06-26T19:44:51.042Z,100479.80
2017-06-26T19:47:17.394Z,100479.33
2017-06-26T19:49:46.079Z,100480.08
2017-06-26T19:52:12.667Z,100488.79
2017-06-26T19:54:39.187Z,100493.47
2017-06-26T19:57:05.517Z,100490.70
2017-06-26T19:59:31.830Z,100489.06
2017-06-26T20:01:58.376Z,100496.12
2017-06-26T20:04:24.711Z,100506.43
2017-06-26T20:06:51.154Z,100506.20
2017-06-26T20:09:17.498Z,100506.13
2017-06-26T20:11:43.903Z,100515.16
2017-06-26T20:14:10.247Z,100512.20
2017-06-26T20:16:36.606Z,100513.39
2017-06-26T20:19:02.938Z,100519.89
2017-06-26T20:21:29.307Z,100520.00
2017-06-26T20:23:55.660Z,100524.78
2017-06-26T20:26:21.990Z,100533.31
2017-06-26T20:28:48.313Z,100529.70
2017-06-26T20:31:14.672Z,100532.80
2017-06-26T20:33:41.020Z,100528.68
2017-06-26T20:36:07.369Z,100527.60
2017-06-26T20:38:33.684Z,100531.59
2017-06-26T20:41:00.019Z,100535.66
2017-06-26T20:43:26.364Z,100532.52
2017-06-26T20:45:52.723Z,100529.71
2017-06-26T20:48:19.070Z,100542.37
2017-06-26T20:50:46.169Z,100533.77
2017-06-26T20:53:12.715Z,100531.82
2017-06-26T20:55:39.044Z,100536.81
2017-06-26T20:58:05.486Z,100538.23
2017-06-26T21:00:31.847Z,100547.05
2017-06-26T21:02:58.187Z,100545.55
2017-06-26T21:05:24.503Z,100547.69
2017-06-26T21:07:50.877Z,100549.81
2017-06-26T21:10:17.209Z,100554.04
2017-06-26T21:12:43.506Z,100555.11
2017-06-26T21:15:09.865Z,100562.84
2017-06-26T21:17:36.206Z,100563.36
2017-06-26T21:20:02.614Z,100561.26
2017-06-26T21:22:28.948Z,100561.20
2017-06-26T21:24:55.306Z,100568.87
2017-06-26T21:27:21.711Z,100568.75
2017-06-26T21:29:48.036Z,100568.30
2017-06-26T21:32:14.411Z,100565.97
2017-06-26T21:34:40.756Z,100560.55
2017-06-26T21:37:07.095Z,100555.82
2017-06-26T21:39:33.461Z,100554.95
2017-06-26T21:41:59.804Z,100558.81
2017-06-26T21:44:26.134Z,100558.13
2017-06-26T21:46:52.524Z,100558.01
2017-06-26T21:49:18.875Z,100561.03
2017-06-26T21:51:45.227Z,100554.33
2017-06-26T21:54:11.666Z,100554.09
2017-06-26T21:56:38.006Z,100554.19
2017-06-26T21:59:04.335Z,100551.66
2017-06-26T22:01:31.131Z,100556.52
2017-06-26T22:03:57.544Z,100557.20
2017-06-26T22:06:24.548Z,100553.45
2017-06-26T22:08:50.919Z,100559.52
2017-06-26T22:11:17.266Z,100564.67
2017-06-26T22:13:43.619Z,100558.05
2017-06-26T22:16:09.974Z,100562.41
2017-06-26T22:18:36.355Z,100559.70
2017-06-26T22:21:02.716Z,100558.23
2017-06-26T22:23:29.058Z,100554.58
2017-06-26T22:25:55.395Z,100554.63
2017-06-26T22:28:21.790Z,100547.16
2017-06-26T22:30:48.177Z,100551.92
2017-06-26T22:33:14.522Z,100538.55
2017-06-26T22:35:40.872Z,100542.53
2017-06-26T22:38:07.284Z,100545.09
2017-06-26T22:43:29.877Z,100554.18
2017-06-26T22:45:56.655Z,100554.91
2017-06-26T22:48:24.241Z,100557.97
2017-06-26T22:50:51.839Z,100561.73
2017-06-26T22:53:19.197Z,100561.10
2017-06-26T22:55:46.750Z,100555.28
2017-06-26T22:58:13.335Z,100556.35
2017-06-26T23:00:41.856Z,100557.62
2017-06-26T23:03:09.102Z,100558.47
2017-06-26T23:05:36.155Z,100556.55
2017-06-26T23:08:03.648Z,100560.14
2017-06-26T23:10:31.094Z,100552.54
2017-06-26T23:13:03.582Z,100553.13
2017-06-26T23:15:30.980Z,100563.55
2017-06-26T23:17:57.638Z,100558.08
2017-06-26T23:20:27.395Z,100564.23
2017-06-26T23:22:54.198Z,100551.64
2017-06-26T23:25:21.765Z,100553.38
2017-06-26T23:27:49.569Z,100559.83
2017-06-26T23:30:17.829Z,100553.08
2017-06-26T23:32:46.424Z,100559.42
2017-06-26T23:35:14.303Z,100553.86
2017-06-26T23:37:41.986Z,100548.50
2017-06-26T23:40:09.026Z,100543.16
2017-06-26T23:42:41.873Z,100547.33
2017-06-26T23:45:09.917Z,100546.17
2017-06-26T23:47:37.798Z,100552.53
2017-06-26T23:50:05.651Z,100554.91
2017-06-26T23:52:33.582Z,100558.02
2017-06-26T23:55:00.138Z,100546.04
2017-06-26T23:57:28.254Z,100542.94
2017-06-26T23:59:55.652Z,100541.28
